createdAt,value
2022-11-16T00:00:35.304Z,50.17
2022-11-16T00:03:03.989Z,51.45
2022-11-16T00:05:31.016Z,67.18
2022-11-16T00:07:58.234Z,54.55
2022-11-16T00:10:25.132Z,48.33
2022-11-16T00:12:51.961Z,52.95
2022-11-16T00:15:18.839Z,55.78
2022-11-16T00:17:45.728Z,66.55
2022-11-16T00:20:12.744Z,53.83
2022-11-16T00:22:39.596Z,50.50
2022-11-16T00:25:07.106Z,44.67
2022-11-16T00:27:33.949Z,47.75
2022-11-16T00:30:00.832Z,50.75
2022-11-16T00:32:27.693Z,52.67
2022-11-16T00:34:54.637Z,47.08
2022-11-16T00:37:21.533Z,44.22
2022-11-16T00:39:48.414Z,44.05
2022-11-16T00:42:15.381Z,44.55
2022-11-16T00:44:42.218Z,48.75
2022-11-16T00:47:09.137Z,42.95
2022-11-16T00:49:36.274Z,44.60
2022-11-16T00:52:03.161Z,49.47
2022-11-16T00:54:30.124Z,45.50
2022-11-16T00:56:58.048Z,45.85
2022-11-16T00:59:25.886Z,51.20
2022-11-16T01:01:56.558Z,50.88
2022-11-16T01:04:23.513Z,60.22
2022-11-16T01:06:50.525Z,64.40
2022-11-16T01:09:17.423Z,63.38
2022-11-16T01:12:06.010Z,61.25
2022-11-16T01:14:32.897Z,55.25
2022-11-16T01:17:00.456Z,58.08
2022-11-16T01:19:27.840Z,54.80
2022-11-16T01:21:54.939Z,51.10
2022-11-16T01:24:22.107Z,43.58
2022-11-16T01:26:48.997Z,40.28
2022-11-16T01:29:16.089Z,44.83
2022-11-16T01:31:48.625Z,47.97
2022-11-16T01:34:15.939Z,43.88
2022-11-16T01:36:42.839Z,44.53
2022-11-16T01:39:13.053Z,49.78
2022-11-16T01:41:45.963Z,55.35
2022-11-16T01:44:32.601Z,48.85
2022-11-16T01:47:11.708Z,40.97
2022-11-16T01:49:43.285Z,40.22
2022-11-16T01:52:16.537Z,48.45
2022-11-16T01:54:46.445Z,56.20
2022-11-16T01:57:20.350Z,46.88
2022-11-16T02:00:00.327Z,46.25
2022-11-16T02:02:41.322Z,44.25
2022-11-16T02:05:22.997Z,44.42
2022-11-16T02:08:29.199Z,51.45
2022-11-16T02:11:23.645Z,59.05
2022-11-16T02:14:03.956Z,62.92
2022-11-16T02:16:58.938Z,63.67
2022-11-16T02:19:43.816Z,68.18
2022-11-16T02:22:37.250Z,62.60
2022-11-16T02:25:53.982Z,67.13
2022-11-16T02:28:53.629Z,62.13
2022-11-16T02:31:27.352Z,66.70
2022-11-16T02:33:58.961Z,69.28
2022-11-16T02:36:26.349Z,69.03
2022-11-16T02:39:00.977Z,77.45
2022-11-16T02:41:34.040Z,82.05
2022-11-16T02:44:07.483Z,74.47
2022-11-16T02:46:38.055Z,84.60
2022-11-16T02:49:14.311Z,80.10
2022-11-16T02:51:42.492Z,93.53
2022-11-16T02:54:15.657Z,98.03
2022-11-16T02:57:04.123Z,91.53
2022-11-16T02:59:44.311Z,79.03
2022-11-16T03:02:39.107Z,71.05
2022-11-16T03:05:32.188Z,75.60
2022-11-16T03:08:07.175Z,61.00
2022-11-16T03:10:57.490Z,69.35
2022-11-16T03:13:29.292Z,54.22
2022-11-16T03:15:57.033Z,105.80
2022-11-16T03:18:29.199Z,232.57
2022-11-16T03:21:12.962Z,297.73
2022-11-16T03:23:40.053Z,256.52
2022-11-16T03:26:10.551Z,240.10
2022-11-16T03:28:48.335Z,266.35
2022-11-16T03:31:25.844Z,253.15
2022-11-16T03:33:57.273Z,467.10
2022-11-16T03:36:33.956Z,518.78
2022-11-16T03:39:11.290Z,549.50
2022-11-16T03:41:46.808Z,711.60
2022-11-16T03:44:16.154Z,941.97
2022-11-16T03:46:45.050Z,916.50
2022-11-16T03:49:13.726Z,1059.53
2022-11-16T03:51:41.808Z,1079.53
2022-11-16T03:54:08.784Z,1195.20
2022-11-16T03:56:36.328Z,1089.35
2022-11-16T03:59:03.660Z,1097.43
2022-11-16T04:01:31.604Z,1018.30
2022-11-16T04:03:59.837Z,946.28
2022-11-16T04:06:45.383Z,935.22
2022-11-16T04:09:24.141Z,799.03
2022-11-16T04:12:09.699Z,781.88
2022-11-16T04:14:57.665Z,975.72
2022-11-16T04:17:45.899Z,818.40
2022-11-16T04:20:33.273Z,771.55
2022-11-16T04:23:33.212Z,880.42
2022-11-16T04:26:02.265Z,841.97
2022-11-16T04:28:34.180Z,853.72
2022-11-16T04:31:23.537Z,723.58
2022-11-16T04:34:35.196Z,769.70
2022-11-16T04:37:22.331Z,581.55
2022-11-16T04:42:19.960Z,793.22
2022-11-16T04:45:08.622Z,690.00
2022-11-16T04:47:45.384Z,707.75
2022-11-16T04:50:12.344Z,679.60
2022-11-16T04:52:41.372Z,730.78
2022-11-16T04:55:12.353Z,714.08
2022-11-16T04:57:40.252Z,706.53
2022-11-16T05:00:08.577Z,817.78
2022-11-16T05:02:37.362Z,742.33
2022-11-16T05:05:04.579Z,812.40
2022-11-16T05:07:31.562Z,749.58
2022-11-16T05:10:07.893Z,674.38
2022-11-16T05:12:35.251Z,753.35
2022-11-16T05:15:06.392Z,576.45
2022-11-16T05:17:34.365Z,641.28
2022-11-16T05:20:21.652Z,749.28
2022-11-16T05:22:56.913Z,657.30
2022-11-16T05:25:26.834Z,665.72
2022-11-16T05:27:54.291Z,879.72
2022-11-16T05:30:21.433Z,631.25
2022-11-16T05:32:49.040Z,641.83
2022-11-16T05:35:18.461Z,578.80
2022-11-16T05:37:46.255Z,539.75
2022-11-16T05:40:13.315Z,401.95
2022-11-16T05:42:50.120Z,483.75
2022-11-16T05:45:21.128Z,507.48
2022-11-16T05:47:49.320Z,508.65
2022-11-16T05:50:16.827Z,336.42
2022-11-16T05:52:46.959Z,328.83
2022-11-16T05:55:13.891Z,422.77
2022-11-16T05:57:44.209Z,394.25
2022-11-16T06:00:12.359Z,259.25
2022-11-16T06:02:42.373Z,353.60
2022-11-16T06:05:17.553Z,297.90
2022-11-16T06:07:45.312Z,242.50
2022-11-16T06:10:12.583Z,285.98
2022-11-16T06:12:42.117Z,164.82
2022-11-16T06:15:09.344Z,119.97
2022-11-16T06:17:36.606Z,131.40
2022-11-16T06:20:03.981Z,121.63
2022-11-16T06:22:31.304Z,153.50
2022-11-16T06:24:58.241Z,93.93
2022-11-16T06:27:26.397Z,116.88
2022-11-16T06:29:53.292Z,121.95
2022-11-16T06:32:21.186Z,133.70
2022-11-16T06:34:48.102Z,88.65
2022-11-16T06:37:15.904Z,99.97
2022-11-16T06:39:43.163Z,103.45
2022-11-16T06:42:10.342Z,84.00
2022-11-16T06:44:38.699Z,103.88
2022-11-16T06:47:08.092Z,84.15
2022-11-16T06:49:35.804Z,83.55
2022-11-16T06:52:08.097Z,80.85
2022-11-16T06:54:35.592Z,104.50
2022-11-16T06:57:02.960Z,104.63
2022-11-16T06:59:30.014Z,114.97
2022-11-16T07:01:57.164Z,87.65
2022-11-16T07:04:25.215Z,112.30
2022-11-16T07:06:56.122Z,72.88
2022-11-16T07:09:23.162Z,99.30
2022-11-16T07:11:50.302Z,71.32
2022-11-16T07:14:18.678Z,58.58
2022-11-16T07:16:45.729Z,59.85
2022-11-16T07:19:12.836Z,51.75
2022-11-16T07:21:41.045Z,56.38
2022-11-16T07:24:13.687Z,48.00
2022-11-16T07:26:40.559Z,46.80
2022-11-16T07:29:12.697Z,47.15
2022-11-16T07:31:44.218Z,45.45
2022-11-16T07:34:46.274Z,51.38
2022-11-16T07:37:16.103Z,46.25
2022-11-16T07:39:45.731Z,52.33
2022-11-16T07:42:13.416Z,44.92
2022-11-16T07:44:59.206Z,38.45
2022-11-16T07:47:26.261Z,36.20
2022-11-16T07:49:55.445Z,34.83
2022-11-16T07:52:25.785Z,33.70
2022-11-16T07:54:57.623Z,35.30
2022-11-16T07:57:27.039Z,35.35
2022-11-16T07:59:56.194Z,36.70
2022-11-16T08:02:23.448Z,38.83
2022-11-16T08:04:51.329Z,52.03
2022-11-16T08:07:23.035Z,58.05
2022-11-16T08:09:55.543Z,57.55
2022-11-16T08:12:22.884Z,77.18
2022-11-16T08:14:49.821Z,64.70
2022-11-16T08:17:16.677Z,78.18
2022-11-16T08:19:44.266Z,70.68
2022-11-16T08:22:14.490Z,69.50
2022-11-16T08:24:42.465Z,71.40
2022-11-16T08:27:09.507Z,55.65
2022-11-16T08:29:36.621Z,61.00
2022-11-16T08:32:06.293Z,52.63
2022-11-16T08:34:34.749Z,62.38
2022-11-16T08:37:01.683Z,41.75
2022-11-16T08:39:43.983Z,45.60
2022-11-16T08:42:10.898Z,46.60
2022-11-16T08:44:39.467Z,48.92
2022-11-16T08:47:11.332Z,41.78
2022-11-16T08:49:49.243Z,44.45
2022-11-16T08:52:18.557Z,36.05
2022-11-16T08:54:46.409Z,30.60
2022-11-16T08:57:13.490Z,37.45
2022-11-16T08:59:42.782Z,40.72
2022-11-16T09:02:13.177Z,39.25
2022-11-16T09:04:40.196Z,31.80
2022-11-16T09:07:07.209Z,35.05
2022-11-16T09:09:34.185Z,45.65
2022-11-16T09:12:01.121Z,32.75
2022-11-16T09:14:37.887Z,25.25
2022-11-16T09:17:04.808Z,27.05
2022-11-16T09:19:31.731Z,23.40
2022-11-16T09:21:58.708Z,28.17
2022-11-16T09:24:25.630Z,24.05
2022-11-16T09:26:52.681Z,20.95
2022-11-16T09:29:19.686Z,20.60
2022-11-16T09:31:46.721Z,21.42
2022-11-16T09:34:13.694Z,20.95
2022-11-16T09:36:40.620Z,19.10
2022-11-16T09:42:19.721Z,27.90
2022-11-16T09:45:00.185Z,22.88
2022-11-16T09:47:51.863Z,24.50
2022-11-16T09:53:36.203Z,25.23
2022-11-16T09:56:05.631Z,30.85
2022-11-16T09:59:00.313Z,25.00
2022-11-16T10:01:32.765Z,29.00
2022-11-16T10:04:07.180Z,31.13
2022-11-16T10:07:08.917Z,24.60
2022-11-16T10:09:36.291Z,34.30
2022-11-16T10:12:24.205Z,31.02
2022-11-16T10:15:15.932Z,33.13
2022-11-16T10:17:57.819Z,26.33
2022-11-16T10:20:37.991Z,26.77
2022-11-16T10:23:19.894Z,21.35
2022-11-16T10:25:58.133Z,26.08
2022-11-16T10:28:44.414Z,23.95
2022-11-16T10:31:26.483Z,20.63
2022-11-16T10:33:57.116Z,19.63
2022-11-16T10:36:27.871Z,25.60
2022-11-16T10:38:57.428Z,29.70
2022-11-16T10:41:24.505Z,24.25
2022-11-16T10:43:51.526Z,27.25
2022-11-16T10:46:21.011Z,21.83
2022-11-16T10:49:06.706Z,27.95
2022-11-16T10:51:33.641Z,23.35
2022-11-16T10:54:00.582Z,22.58
2022-11-16T10:56:40.487Z,19.63
2022-11-16T10:59:12.607Z,20.70
2022-11-16T11:01:39.564Z,23.15
2022-11-16T11:04:28.955Z,18.65
2022-11-16T11:06:57.169Z,21.88
2022-11-16T11:09:34.108Z,18.33
2022-11-16T11:12:32.853Z,16.05
2022-11-16T11:15:11.617Z,19.35
2022-11-16T11:17:44.183Z,18.25
2022-11-16T11:20:17.218Z,13.77
2022-11-16T11:22:54.048Z,15.73
2022-11-16T11:25:41.324Z,13.88
2022-11-16T11:28:43.302Z,16.00
2022-11-16T11:31:22.762Z,20.88
2022-11-16T11:33:52.076Z,18.65
2022-11-16T11:36:22.720Z,15.65
2022-11-16T11:38:59.113Z,18.27
2022-11-16T11:41:32.568Z,14.27
2022-11-16T11:44:05.207Z,16.20
2022-11-16T11:47:42.503Z,17.42
2022-11-16T11:49:43.103Z,15.85
2022-11-16T11:52:19.716Z,14.52
2022-11-16T11:54:49.162Z,15.65
2022-11-16T11:57:23.368Z,16.88
2022-11-16T12:03:15.531Z,15.63
2022-11-16T12:05:57.764Z,15.75
2022-11-16T12:08:32.660Z,12.20
2022-11-16T12:11:06.443Z,19.95
2022-11-16T12:14:05.885Z,17.25
2022-11-16T12:17:01.044Z,17.92
2022-11-16T12:19:43.268Z,17.05
2022-11-16T12:22:55.745Z,14.30
2022-11-16T12:25:27.047Z,15.45
2022-11-16T12:28:30.462Z,14.07
2022-11-16T12:31:28.921Z,16.35
2022-11-16T12:34:14.146Z,14.60
2022-11-16T12:36:49.653Z,18.48
2022-11-16T12:39:35.760Z,19.45
2022-11-16T12:42:27.784Z,19.77
2022-11-16T12:45:10.438Z,22.58
2022-11-16T12:48:11.589Z,18.23
2022-11-16T12:50:41.327Z,20.13
2022-11-16T12:53:36.346Z,16.30
2022-11-16T12:56:06.059Z,18.98
2022-11-16T12:58:46.105Z,18.45
2022-11-16T13:01:23.337Z,32.10
2022-11-16T13:03:55.311Z,20.27
2022-11-16T13:06:32.101Z,20.25
2022-11-16T13:09:06.166Z,22.85
2022-11-16T13:11:40.336Z,16.02
2022-11-16T13:14:15.925Z,25.73
2022-11-16T13:16:44.628Z,20.55
2022-11-16T13:19:15.983Z,25.92
2022-11-16T13:22:06.305Z,21.25
2022-11-16T13:24:45.289Z,22.45
2022-11-16T13:27:41.851Z,23.60
2022-11-16T13:30:21.779Z,20.88
2022-11-16T13:33:22.294Z,21.30
2022-11-16T13:35:49.156Z,22.88
2022-11-16T13:38:52.615Z,21.20
2022-11-16T13:41:33.752Z,20.40
2022-11-16T13:44:02.820Z,26.08
2022-11-16T13:46:55.836Z,27.70
2022-11-16T13:49:33.265Z,24.80
2022-11-16T13:52:22.528Z,25.92
2022-11-16T13:54:55.686Z,22.17
2022-11-16T13:57:34.028Z,26.55
2022-11-16T14:00:00.844Z,27.95
2022-11-16T14:02:39.238Z,22.60
2022-11-16T14:05:13.155Z,22.25
2022-11-16T14:07:51.098Z,22.70
2022-11-16T14:10:38.719Z,20.45
2022-11-16T14:13:26.507Z,23.10
2022-11-16T14:16:16.883Z,26.90
2022-11-16T14:18:45.252Z,24.92
2022-11-16T14:21:21.942Z,25.50
2022-11-16T14:23:57.757Z,24.42
2022-11-16T14:26:46.453Z,22.85
2022-11-16T14:29:34.837Z,24.42
2022-11-16T14:32:03.608Z,29.42
2022-11-16T14:34:32.371Z,24.13
2022-11-16T14:37:00.601Z,33.08
2022-11-16T14:39:32.141Z,29.27
2022-11-16T14:42:16.369Z,22.42
2022-11-16T14:44:43.877Z,20.00
2022-11-16T14:47:23.637Z,35.17
2022-11-16T14:49:51.372Z,38.15
2022-11-16T14:52:35.236Z,41.00
2022-11-16T14:55:06.540Z,38.55
2022-11-16T14:57:33.648Z,42.53
2022-11-16T15:00:11.190Z,39.50
2022-11-16T15:02:39.920Z,44.00
2022-11-16T15:05:07.346Z,40.75
2022-11-16T15:07:34.442Z,34.45
2022-11-16T15:10:01.523Z,32.05
2022-11-16T15:12:42.200Z,42.83
2022-11-16T15:15:11.843Z,44.88
2022-11-16T15:17:41.828Z,50.13
2022-11-16T15:20:25.234Z,44.10
2022-11-16T15:22:54.762Z,46.22
2022-11-16T15:25:32.076Z,37.97
2022-11-16T15:28:02.729Z,49.50
2022-11-16T15:30:34.202Z,35.70
2022-11-16T15:33:16.175Z,34.47
2022-11-16T15:35:43.244Z,38.15
2022-11-16T15:38:25.970Z,36.72
2022-11-16T15:40:56.326Z,42.20
2022-11-16T15:43:31.453Z,37.55
2022-11-16T15:48:27.948Z,44.25
2022-11-16T15:51:03.154Z,39.53
2022-11-16T15:53:37.524Z,40.78
2022-11-16T15:56:30.677Z,44.10
2022-11-16T15:59:01.290Z,36.53
2022-11-16T16:01:31.187Z,43.38
2022-11-16T16:04:01.238Z,45.22
2022-11-16T16:06:44.281Z,44.10
2022-11-16T16:09:49.318Z,44.65
2022-11-16T16:12:19.862Z,43.92
2022-11-16T16:14:49.267Z,42.90
2022-11-16T16:17:28.362Z,39.45
2022-11-16T16:19:58.221Z,43.00
2022-11-16T16:22:29.781Z,44.35
2022-11-16T16:24:57.030Z,44.78
2022-11-16T16:27:26.374Z,47.55
2022-11-16T16:29:55.517Z,51.40
2022-11-16T16:32:27.057Z,43.28
2022-11-16T16:34:55.830Z,49.33
2022-11-16T16:37:23.714Z,51.67
2022-11-16T16:39:50.670Z,57.28
2022-11-16T16:42:18.006Z,51.05
2022-11-16T16:44:46.048Z,42.35
2022-11-16T16:47:13.555Z,54.40
2022-11-16T16:49:40.681Z,48.53
2022-11-16T16:52:08.635Z,43.05
2022-11-16T16:54:35.471Z,48.78
2022-11-16T16:57:02.562Z,47.00
2022-11-16T16:59:32.277Z,46.05
2022-11-16T17:01:59.458Z,48.33
2022-11-16T17:04:26.676Z,47.03
2022-11-16T17:06:54.345Z,52.63
2022-11-16T17:09:21.518Z,46.55
2022-11-16T17:11:48.588Z,45.22
2022-11-16T17:14:15.585Z,53.35
2022-11-16T17:16:42.427Z,48.15
2022-11-16T17:19:09.949Z,50.85
2022-11-16T17:21:36.780Z,51.10
2022-11-16T17:24:03.929Z,51.13
2022-11-16T17:26:30.920Z,54.45
2022-11-16T17:28:58.516Z,48.22
2022-11-16T17:31:28.024Z,63.08
2022-11-16T17:33:57.506Z,60.30
2022-11-16T17:36:24.387Z,61.45
2022-11-16T17:38:51.335Z,63.15
2022-11-16T17:41:21.768Z,62.08
2022-11-16T17:43:52.987Z,64.28
2022-11-16T17:46:23.577Z,53.58
2022-11-16T17:48:51.293Z,64.70
2022-11-16T17:51:20.664Z,61.90
2022-11-16T17:53:49.292Z,75.88
2022-11-16T17:56:19.051Z,57.03
2022-11-16T17:58:46.396Z,60.70
2022-11-16T18:01:14.334Z,66.07
2022-11-16T18:03:41.583Z,55.53
2022-11-16T18:06:13.333Z,59.38
2022-11-16T18:08:41.357Z,59.95
2022-11-16T18:11:10.907Z,54.88
2022-11-16T18:13:38.334Z,56.53
2022-11-16T18:16:12.601Z,63.90
2022-11-16T18:18:40.133Z,64.05
2022-11-16T18:21:08.605Z,61.67
2022-11-16T18:23:37.472Z,56.92
2022-11-16T18:26:08.476Z,63.25
2022-11-16T18:28:35.702Z,69.22
2022-11-16T18:31:07.618Z,63.25
2022-11-16T18:33:36.624Z,59.75
2022-11-16T18:36:05.124Z,66.05
2022-11-16T18:38:32.560Z,68.63
2022-11-16T18:41:03.239Z,68.70
2022-11-16T18:43:30.365Z,72.82
2022-11-16T18:45:57.315Z,75.65
2022-11-16T18:48:24.359Z,75.05
2022-11-16T18:50:51.241Z,68.55
2022-11-16T18:53:18.145Z,79.88
2022-11-16T18:55:57.589Z,70.65
2022-11-16T19:01:15.546Z,76.72
2022-11-16T19:03:42.698Z,74.70
2022-11-16T19:06:10.823Z,74.13
2022-11-16T19:08:40.430Z,70.60
2022-11-16T19:11:16.964Z,71.75
2022-11-16T19:13:44.757Z,67.82
2022-11-16T19:16:13.519Z,72.57
2022-11-16T19:18:40.460Z,75.38
2022-11-16T19:21:08.825Z,83.60
2022-11-16T19:23:44.492Z,75.25
2022-11-16T19:26:13.475Z,85.35
2022-11-16T19:28:46.072Z,81.00
2022-11-16T19:31:16.915Z,80.32
2022-11-16T19:33:45.199Z,85.38
2022-11-16T19:36:16.443Z,88.85
2022-11-16T19:38:45.081Z,85.85
2022-11-16T19:41:14.629Z,86.75
2022-11-16T19:43:42.021Z,86.78
2022-11-16T19:46:11.614Z,86.07
2022-11-16T19:48:39.281Z,92.53
2022-11-16T19:51:11.122Z,90.32
2022-11-16T19:53:39.313Z,79.13
2022-11-16T19:56:08.636Z,90.25
2022-11-16T19:58:37.114Z,84.93
2022-11-16T20:01:10.724Z,82.18
2022-11-16T20:03:38.686Z,77.35
2022-11-16T20:06:08.572Z,85.07
2022-11-16T20:08:36.673Z,84.43
2022-11-16T20:11:14.160Z,87.18
2022-11-16T20:13:42.547Z,88.78
2022-11-16T20:16:11.433Z,83.22
2022-11-16T20:18:39.264Z,84.85
2022-11-16T20:21:07.639Z,82.82
2022-11-16T20:23:35.366Z,78.88
2022-11-16T20:26:10.630Z,72.57
2022-11-16T20:28:39.586Z,76.25
2022-11-16T20:31:15.185Z,82.88
2022-11-16T20:33:42.488Z,81.55
2022-11-16T20:36:11.501Z,73.28
2022-11-16T20:38:39.327Z,82.43
2022-11-16T20:41:23.893Z,78.97
2022-11-16T20:43:52.525Z,78.15
2022-11-16T20:46:21.176Z,75.57
2022-11-16T20:48:48.296Z,73.55
2022-11-16T20:51:18.152Z,81.80
2022-11-16T20:53:46.489Z,75.45
2022-11-16T20:56:14.574Z,74.32
2022-11-16T20:58:41.639Z,77.18
2022-11-16T21:01:12.543Z,73.07
2022-11-16T21:03:40.445Z,77.93
2022-11-16T21:06:08.881Z,76.43
2022-11-16T21:08:37.529Z,72.03
2022-11-16T21:11:19.864Z,80.18
2022-11-16T21:14:05.624Z,76.95
2022-11-16T21:19:00.892Z,79.45
2022-11-16T21:21:27.995Z,78.80
2022-11-16T21:23:55.215Z,88.00
2022-11-16T21:26:30.447Z,80.50
2022-11-16T21:28:59.466Z,84.50
2022-11-16T21:31:29.843Z,83.32
2022-11-16T21:33:57.841Z,80.10
2022-11-16T21:36:27.124Z,84.50
2022-11-16T21:38:54.780Z,85.18
2022-11-16T21:41:24.148Z,77.15
2022-11-16T21:43:51.235Z,79.35
2022-11-16T21:46:24.879Z,75.68
2022-11-16T21:48:52.978Z,67.00
2022-11-16T21:51:25.332Z,77.80
2022-11-16T21:53:52.616Z,72.63
2022-11-16T21:56:21.995Z,70.63
2022-11-16T21:58:50.470Z,65.50
2022-11-16T22:01:17.526Z,60.65
2022-11-16T22:03:44.999Z,58.40
2022-11-16T22:06:34.704Z,55.83
2022-11-16T22:09:02.061Z,54.15
2022-11-16T22:11:29.062Z,60.00
2022-11-16T22:13:55.945Z,57.22
2022-11-16T22:16:23.620Z,53.15
2022-11-16T22:18:51.042Z,60.17
2022-11-16T22:21:18.226Z,56.25
2022-11-16T22:23:45.165Z,54.67
2022-11-16T22:26:13.491Z,51.13
2022-11-16T22:28:40.410Z,52.25
2022-11-16T22:31:10.802Z,58.88
2022-11-16T22:33:38.461Z,58.03
2022-11-16T22:36:08.514Z,60.80
2022-11-16T22:38:35.773Z,56.55
2022-11-16T22:41:02.909Z,56.92
2022-11-16T22:43:31.180Z,57.22
2022-11-16T22:45:59.737Z,55.83
2022-11-16T22:48:34.823Z,58.25
2022-11-16T22:51:07.103Z,59.95
2022-11-16T22:53:34.860Z,62.00
2022-11-16T22:56:09.810Z,63.63
2022-11-16T22:58:37.775Z,65.35
2022-11-16T23:01:07.525Z,71.55
2022-11-16T23:03:35.022Z,69.50
2022-11-16T23:06:02.385Z,58.30
2022-11-16T23:08:29.798Z,62.63
2022-11-16T23:11:26.237Z,47.17
2022-11-16T23:14:12.701Z,63.30
2022-11-16T23:16:41.046Z,56.50
2022-11-16T23:19:28.611Z,58.83
2022-11-16T23:22:15.215Z,59.80
2022-11-16T23:25:01.124Z,63.65
2022-11-16T23:27:37.724Z,62.83
2022-11-16T23:30:12.194Z,56.47
2022-11-16T23:35:06.856Z,60.67
2022-11-16T23:37:33.767Z,57.10
2022-11-16T23:40:00.670Z,57.15
2022-11-16T23:42:45.982Z,58.97
2022-11-16T23:45:12.936Z,59.05
2022-11-16T23:47:39.770Z,61.60
2022-11-16T23:50:06.881Z,64.45
2022-11-16T23:52:33.722Z,66.40
2022-11-16T23:55:00.712Z,47.88
2022-11-16T23:57:27.555Z,58.90
2022-11-16T23:59:54.408Z,59.80
